createdAt,value
2023-06-22T00:00:08.302Z,51.179180
2023-06-22T00:01:08.303Z,51.179188
2023-06-22T00:02:08.290Z,51.179211
2023-06-22T00:03:08.368Z,51.179192
2023-06-22T00:04:08.283Z,51.179203
2023-06-22T00:05:08.251Z,51.179199
2023-06-22T00:06:08.245Z,51.179211
2023-06-22T00:07:08.211Z,51.179211
2023-06-22T00:08:08.207Z,51.179211
2023-06-22T00:09:08.205Z,51.179222
2023-06-22T00:10:09.180Z,51.179226
2023-06-22T00:11:08.179Z,51.179237
2023-06-22T00:12:08.158Z,51.179245
2023-06-22T00:13:08.141Z,51.179211
2023-06-22T00:14:08.130Z,51.179203
2023-06-22T00:15:08.154Z,51.179199
2023-06-22T00:16:08.126Z,51.179176
2023-06-22T00:17:08.101Z,51.179165
2023-06-22T00:18:08.132Z,51.179195
2023-06-22T00:19:08.116Z,51.179180
2023-06-22T00:20:08.068Z,51.179203
2023-06-22T00:21:08.075Z,51.179218
2023-06-22T00:22:08.035Z,51.179222
2023-06-22T00:23:08.035Z,51.179211
2023-06-22T00:24:08.012Z,51.179234
2023-06-22T00:25:08.018Z,51.179241
2023-06-22T00:26:07.988Z,51.179218
2023-06-22T00:27:07.983Z,51.179207
2023-06-22T00:28:08.025Z,51.179230
2023-06-22T00:29:08.079Z,51.179256
2023-06-22T00:30:07.956Z,51.179241
2023-06-22T00:31:07.966Z,51.179234
2023-06-22T00:32:07.925Z,51.179222
2023-06-22T00:33:07.933Z,51.179226
2023-06-22T00:34:07.905Z,51.179234
2023-06-22T00:35:07.903Z,51.179207
2023-06-22T00:36:07.891Z,51.179214
2023-06-22T00:37:07.876Z,51.179207
2023-06-22T00:38:07.875Z,51.179203
2023-06-22T00:39:07.854Z,51.179203
2023-06-22T00:40:07.851Z,51.179222
2023-06-22T00:41:07.827Z,51.179222
2023-06-22T00:42:07.817Z,51.179214
2023-06-22T00:43:07.830Z,51.179203
2023-06-22T00:44:07.828Z,51.179214
2023-06-22T00:45:07.787Z,51.179211
2023-06-22T00:46:07.762Z,51.179203
2023-06-22T00:47:07.793Z,51.179199
2023-06-22T00:48:07.785Z,51.179180
2023-06-22T00:49:07.731Z,51.179184
2023-06-22T00:50:07.726Z,51.179214
2023-06-22T00:51:07.734Z,51.179237
2023-06-22T00:52:07.696Z,51.179291
2023-06-22T00:53:07.665Z,51.179329
2023-06-22T00:54:08.721Z,51.179337
2023-06-22T00:55:07.658Z,51.179317
2023-06-22T00:56:07.654Z,51.179283
2023-06-22T00:57:07.675Z,51.179245
2023-06-22T00:58:07.637Z,51.179218
2023-06-22T00:59:07.604Z,51.179218
2023-06-22T01:00:07.616Z,51.179214
2023-06-22T01:01:07.610Z,51.179195
2023-06-22T01:02:07.629Z,51.179203
2023-06-22T01:03:07.705Z,51.179195
2023-06-22T01:04:07.688Z,51.179218
2023-06-22T01:05:07.545Z,51.179218
2023-06-22T01:06:07.544Z,51.179230
2023-06-22T01:07:07.540Z,51.179207
2023-06-22T01:08:07.501Z,51.179203
2023-06-22T01:09:07.505Z,51.179176
2023-06-22T01:10:07.490Z,51.179192
2023-06-22T01:11:07.490Z,51.179207
2023-06-22T01:12:07.492Z,51.179211
2023-06-22T01:13:07.470Z,51.179165
2023-06-22T01:14:07.451Z,51.179176
2023-06-22T01:15:07.438Z,51.179195
2023-06-22T01:16:07.431Z,51.179195
2023-06-22T01:17:07.417Z,51.179169
2023-06-22T01:18:07.426Z,51.179199
2023-06-22T01:19:07.393Z,51.179226
2023-06-22T01:20:07.388Z,51.179245
2023-06-22T01:21:07.364Z,51.179249
2023-06-22T01:22:07.351Z,51.179222
2023-06-22T01:23:07.349Z,51.179234
2023-06-22T01:24:07.344Z,51.179218
2023-06-22T01:25:07.332Z,51.179222
2023-06-22T01:26:07.298Z,51.179207
2023-06-22T01:27:07.294Z,51.179230
2023-06-22T01:28:07.280Z,51.179203
2023-06-22T01:29:07.295Z,51.179192
2023-06-22T01:30:07.253Z,51.179207
2023-06-22T01:31:07.280Z,51.179169
2023-06-22T01:32:09.337Z,51.179161
2023-06-22T01:33:08.286Z,51.179176
2023-06-22T01:34:07.280Z,51.179176
2023-06-22T01:35:07.198Z,51.179199
2023-06-22T01:36:07.217Z,51.179211
2023-06-22T01:37:07.174Z,51.179192
2023-06-22T01:38:07.171Z,51.179199
2023-06-22T01:39:07.170Z,51.179237
2023-06-22T01:40:07.214Z,51.179230
2023-06-22T01:41:07.134Z,51.179226
2023-06-22T01:42:07.127Z,51.179230
2023-06-22T01:43:07.136Z,51.179230
2023-06-22T01:44:07.112Z,51.179214
2023-06-22T01:45:07.091Z,51.179203
2023-06-22T01:46:07.078Z,51.179214
2023-06-22T01:47:07.062Z,51.179188
2023-06-22T01:48:07.121Z,51.179195
2023-06-22T01:49:07.060Z,51.179199
2023-06-22T01:50:07.042Z,51.179222
2023-06-22T01:51:07.013Z,51.179245
2023-06-22T01:52:07.016Z,51.179214
2023-06-22T01:53:07.007Z,51.179218
2023-06-22T01:54:07.018Z,51.179241
2023-06-22T01:55:06.964Z,51.179249
2023-06-22T01:56:06.961Z,51.179276
2023-06-22T01:57:06.947Z,51.179245
2023-06-22T01:58:06.959Z,51.179214
2023-06-22T01:59:06.932Z,51.179222
2023-06-22T02:00:06.933Z,51.179218
2023-06-22T02:01:06.897Z,51.179214
2023-06-22T02:02:06.965Z,51.179222
2023-06-22T02:03:06.945Z,51.179207
2023-06-22T02:04:07.029Z,51.179211
2023-06-22T02:05:06.865Z,51.179218
2023-06-22T02:06:06.856Z,51.179207
2023-06-22T02:07:06.841Z,51.179214
2023-06-22T02:08:06.829Z,51.179234
2023-06-22T02:09:06.813Z,51.179256
2023-06-22T02:10:06.805Z,51.179268
2023-06-22T02:11:06.809Z,51.179253
2023-06-22T02:12:06.771Z,51.179211
2023-06-22T02:13:06.767Z,51.179184
2023-06-22T02:14:06.764Z,51.179188
2023-06-22T02:15:06.741Z,51.179207
2023-06-22T02:16:06.729Z,51.179245
2023-06-22T02:17:06.709Z,51.179199
2023-06-22T02:18:06.760Z,51.179138
2023-06-22T02:19:06.694Z,51.179134
2023-06-22T02:20:06.688Z,51.179176
2023-06-22T02:21:06.697Z,51.179203
2023-06-22T02:22:06.662Z,51.179211
2023-06-22T02:23:06.639Z,51.179203
2023-06-22T02:24:06.642Z,51.179176
2023-06-22T02:25:06.648Z,51.179176
2023-06-22T02:26:06.619Z,51.179203
2023-06-22T02:27:06.616Z,51.179222
2023-06-22T02:28:06.607Z,51.179214
2023-06-22T02:29:06.578Z,51.179211
2023-06-22T02:30:06.589Z,51.179222
2023-06-22T02:31:06.576Z,51.179230
2023-06-22T02:32:06.544Z,51.179203
2023-06-22T02:33:06.570Z,51.179192
2023-06-22T02:34:06.538Z,51.179207
2023-06-22T02:35:06.512Z,51.179218
2023-06-22T02:36:06.567Z,51.179214
2023-06-22T02:37:06.496Z,51.179184
2023-06-22T02:38:06.472Z,51.179169
2023-06-22T02:39:06.463Z,51.179188
2023-06-22T02:40:06.455Z,51.179230
2023-06-22T02:41:06.455Z,51.179253
2023-06-22T02:42:06.438Z,51.179256
2023-06-22T02:43:06.430Z,51.179245
2023-06-22T02:44:06.414Z,51.179222
2023-06-22T02:45:06.407Z,51.179184
2023-06-22T02:46:06.406Z,51.179237
2023-06-22T02:47:06.405Z,51.179241
2023-06-22T02:48:06.396Z,51.179230
2023-06-22T02:49:06.354Z,51.179199
2023-06-22T02:50:06.345Z,51.179222
2023-06-22T02:51:06.333Z,51.179222
2023-06-22T02:52:06.328Z,51.179230
2023-06-22T02:53:06.310Z,51.179245
2023-06-22T02:54:06.383Z,51.179230
2023-06-22T02:55:06.284Z,51.179245
2023-06-22T02:56:06.289Z,51.179237
2023-06-22T02:57:06.283Z,51.179237
2023-06-22T02:58:06.258Z,51.179253
2023-06-22T02:59:06.239Z,51.179188
2023-06-22T03:00:06.240Z,51.179176
2023-06-22T03:01:06.323Z,51.179245
2023-06-22T03:02:06.194Z,51.179226
2023-06-22T03:03:06.277Z,51.179199
2023-06-22T03:04:06.321Z,51.179256
2023-06-22T03:05:06.188Z,51.179241
2023-06-22T03:06:06.175Z,51.179234
2023-06-22T03:07:06.825Z,51.179226
2023-06-22T03:08:06.130Z,51.179188
2023-06-22T03:09:06.355Z,51.179192
2023-06-22T03:10:06.112Z,51.179203
2023-06-22T03:11:06.112Z,51.179207
2023-06-22T03:12:06.080Z,51.179211
2023-06-22T03:13:06.080Z,51.179188
2023-06-22T03:14:06.062Z,51.179173
2023-06-22T03:15:06.048Z,51.179184
2023-06-22T03:16:06.052Z,51.179203
2023-06-22T03:17:06.048Z,51.179192
2023-06-22T03:18:06.088Z,51.179184
2023-06-22T03:19:06.034Z,51.179184
2023-06-22T03:20:05.999Z,51.179173
2023-06-22T03:21:05.980Z,51.179173
2023-06-22T03:22:05.979Z,51.179192
2023-06-22T03:23:05.988Z,51.179207
2023-06-22T03:24:05.938Z,51.179199
2023-06-22T03:25:05.937Z,51.179188
2023-06-22T03:26:05.930Z,51.179184
2023-06-22T03:27:05.973Z,51.179230
2023-06-22T03:28:05.903Z,51.179218
2023-06-22T03:29:05.989Z,51.179241
2023-06-22T03:30:05.881Z,51.179245
2023-06-22T03:31:05.888Z,51.179222
2023-06-22T03:32:05.969Z,51.179230
2023-06-22T03:33:05.889Z,51.179222
2023-06-22T03:34:05.861Z,51.179245
2023-06-22T03:35:05.825Z,51.179256
2023-06-22T03:36:05.876Z,51.179279
2023-06-22T03:37:05.805Z,51.179245
2023-06-22T03:38:05.828Z,51.179241
2023-06-22T03:39:05.770Z,51.179218
2023-06-22T03:40:05.786Z,51.179230
2023-06-22T03:41:05.753Z,51.179234
2023-06-22T03:42:05.760Z,51.179245
2023-06-22T03:43:05.734Z,51.179260
2023-06-22T03:44:05.734Z,51.179249
2023-06-22T03:45:05.725Z,51.179253
2023-06-22T03:46:05.769Z,51.179264
2023-06-22T03:47:05.683Z,51.179272
2023-06-22T03:48:05.732Z,51.179253
2023-06-22T03:49:05.832Z,51.179264
2023-06-22T03:50:05.725Z,51.179234
2023-06-22T03:51:05.666Z,51.179222
2023-06-22T03:52:05.637Z,51.179234
2023-06-22T03:53:05.626Z,51.179268
2023-06-22T03:54:05.655Z,51.179272
2023-06-22T03:55:05.605Z,51.179287
2023-06-22T03:56:05.598Z,51.179272
2023-06-22T03:57:05.590Z,51.179276
2023-06-22T03:58:05.573Z,51.179272
2023-06-22T03:59:05.550Z,51.179260
2023-06-22T04:00:05.586Z,51.179253
2023-06-22T04:01:05.533Z,51.179279
2023-06-22T04:02:05.507Z,51.179264
2023-06-22T04:03:05.533Z,51.179264
2023-06-22T04:04:05.636Z,51.179218
2023-06-22T04:05:05.584Z,51.179203
2023-06-22T04:06:05.495Z,51.179214
2023-06-22T04:07:05.460Z,51.179237
2023-06-22T04:08:05.450Z,51.179218
2023-06-22T04:09:05.439Z,51.179234
2023-06-22T04:10:05.406Z,51.179287
2023-06-22T04:11:05.437Z,51.179241
2023-06-22T04:12:05.381Z,51.179214
2023-06-22T04:13:05.389Z,51.179211
2023-06-22T04:14:05.377Z,51.179253
2023-06-22T04:15:05.366Z,51.179249
2023-06-22T04:16:05.380Z,51.179237
2023-06-22T04:17:05.336Z,51.179237
2023-06-22T04:18:05.361Z,51.179264
2023-06-22T04:19:05.306Z,51.179310
2023-06-22T04:20:05.334Z,51.179287
2023-06-22T04:21:05.295Z,51.179264
2023-06-22T04:22:05.276Z,51.179214
2023-06-22T04:23:05.278Z,51.179207
2023-06-22T04:24:05.270Z,51.179241
2023-06-22T04:25:05.242Z,51.179214
2023-06-22T04:26:05.239Z,51.179192
2023-06-22T04:27:05.246Z,51.179188
2023-06-22T04:28:05.229Z,51.179203
2023-06-22T04:29:05.201Z,51.179249
2023-06-22T04:30:05.186Z,51.179241
2023-06-22T04:31:05.258Z,51.179268
2023-06-22T04:32:05.169Z,51.179256
2023-06-22T04:33:05.202Z,51.179222
2023-06-22T04:34:05.149Z,51.179203
2023-06-22T04:35:05.137Z,51.179211
2023-06-22T04:36:05.118Z,51.179184
2023-06-22T04:37:05.160Z,51.179199
2023-06-22T04:38:05.090Z,51.179180
2023-06-22T04:39:05.078Z,51.179195
2023-06-22T04:40:05.128Z,51.179199
2023-06-22T04:41:05.083Z,51.179199
2023-06-22T04:42:05.072Z,51.179176
2023-06-22T04:43:05.063Z,51.179203
2023-06-22T04:44:05.037Z,51.179249
2023-06-22T04:45:05.023Z,51.179279
2023-06-22T04:46:05.076Z,51.179276
2023-06-22T04:47:05.116Z,51.179241
2023-06-22T04:48:05.041Z,51.179287
2023-06-22T04:49:04.979Z,51.179283
2023-06-22T04:50:04.961Z,51.179180
2023-06-22T04:51:04.978Z,51.179234
2023-06-22T04:52:04.921Z,51.179272
2023-06-22T04:53:04.939Z,51.179222
2023-06-22T04:54:04.919Z,51.179188
2023-06-22T04:55:04.925Z,51.179180
2023-06-22T04:56:04.881Z,51.179211
2023-06-22T04:57:04.879Z,51.179226
2023-06-22T04:58:04.896Z,51.179230
2023-06-22T04:59:04.869Z,51.179226
2023-06-22T05:00:04.852Z,51.179218
2023-06-22T05:01:04.838Z,51.179249
2023-06-22T05:02:04.847Z,51.179253
2023-06-22T05:03:18.662Z,51.179268
2023-06-22T05:04:07.067Z,51.179268
2023-06-22T05:05:04.872Z,51.179241
2023-06-22T05:06:04.797Z,51.179211
2023-06-22T05:07:04.776Z,51.179241
2023-06-22T05:08:04.799Z,51.179230
2023-06-22T05:09:04.763Z,51.179279
2023-06-22T05:10:04.741Z,51.179276
2023-06-22T05:11:05.974Z,51.179279
2023-06-22T05:12:07.127Z,51.179241
2023-06-22T05:13:04.687Z,51.179222
2023-06-22T05:14:04.694Z,51.179214
2023-06-22T05:15:04.672Z,51.179203
2023-06-22T05:16:04.755Z,51.179207
2023-06-22T05:17:04.676Z,51.179253
2023-06-22T05:18:04.722Z,51.179245
2023-06-22T05:19:04.806Z,51.179272
2023-06-22T05:20:04.639Z,51.179260
2023-06-22T05:21:04.631Z,51.179260
2023-06-22T05:22:04.613Z,51.179256
2023-06-22T05:23:05.614Z,51.179264
2023-06-22T05:24:04.580Z,51.179256
2023-06-22T05:25:04.575Z,51.179260
2023-06-22T05:26:04.585Z,51.179264
2023-06-22T05:27:04.568Z,51.179256
2023-06-22T05:28:04.552Z,51.179237
2023-06-22T05:29:04.515Z,51.179253
2023-06-22T05:30:04.513Z,51.179268
2023-06-22T05:31:04.514Z,51.179234
2023-06-22T05:32:04.494Z,51.179237
2023-06-22T05:33:04.604Z,51.179218
2023-06-22T05:34:04.507Z,51.179188
2023-06-22T05:35:04.464Z,51.179173
2023-06-22T05:36:04.479Z,51.179207
2023-06-22T05:37:04.441Z,51.179199
2023-06-22T05:38:04.415Z,51.179203
2023-06-22T05:39:05.445Z,51.179249
2023-06-22T05:40:04.395Z,51.179268
2023-06-22T05:41:04.397Z,51.179260
2023-06-22T05:42:04.376Z,51.179245
2023-06-22T05:43:04.381Z,51.179203
2023-06-22T05:44:04.379Z,51.179241
2023-06-22T05:45:04.356Z,51.179245
2023-06-22T05:46:04.329Z,51.179218
2023-06-22T05:47:04.334Z,51.179180
2023-06-22T05:48:04.432Z,51.179195
2023-06-22T05:49:04.321Z,51.179218
2023-06-22T05:50:04.323Z,51.179226
2023-06-22T05:51:04.282Z,51.179260
2023-06-22T05:52:04.300Z,51.179310
2023-06-22T05:53:04.272Z,51.179306
2023-06-22T05:54:04.244Z,51.179302
2023-06-22T05:55:04.250Z,51.179306
2023-06-22T05:56:05.224Z,51.179279
2023-06-22T05:57:04.225Z,51.179276
2023-06-22T05:58:04.230Z,51.179260
2023-06-22T05:59:04.186Z,51.179237
2023-06-22T06:00:04.190Z,51.179253
2023-06-22T06:01:04.179Z,51.179272
2023-06-22T06:02:04.192Z,51.179249
2023-06-22T06:03:04.356Z,51.179218
2023-06-22T06:04:04.184Z,51.179161
2023-06-22T06:05:04.147Z,51.179203
2023-06-22T06:06:04.123Z,51.179222
2023-06-22T06:07:05.105Z,51.179218
2023-06-22T06:08:04.138Z,51.179245
2023-06-22T06:09:04.078Z,51.179253
2023-06-22T06:10:04.073Z,51.179256
2023-06-22T06:11:04.088Z,51.179260
2023-06-22T06:12:04.056Z,51.179276
2023-06-22T06:13:04.065Z,51.179276
2023-06-22T06:14:04.024Z,51.179279
2023-06-22T06:15:04.016Z,51.179253
2023-06-22T06:16:04.017Z,51.179256
2023-06-22T06:17:03.998Z,51.179230
2023-06-22T06:18:04.033Z,51.179234
2023-06-22T06:19:04.001Z,51.179245
2023-06-22T06:20:03.966Z,51.179241
2023-06-22T06:21:03.960Z,51.179237
2023-06-22T06:22:03.942Z,51.179279
2023-06-22T06:23:03.936Z,51.179253
2023-06-22T06:24:03.919Z,51.179211
2023-06-22T06:25:03.898Z,51.179241
2023-06-22T06:26:03.909Z,51.179287
2023-06-22T06:27:03.891Z,51.179264
2023-06-22T06:28:03.868Z,51.179249
2023-06-22T06:29:03.864Z,51.179245
2023-06-22T06:30:03.900Z,51.179268
2023-06-22T06:31:04.027Z,51.179279
2023-06-22T06:32:04.027Z,51.179279
2023-06-22T06:33:03.889Z,51.179272
2023-06-22T06:34:03.853Z,51.179256
2023-06-22T06:35:03.810Z,51.179264
2023-06-22T06:36:03.808Z,51.179222
2023-06-22T06:37:03.806Z,51.179222
2023-06-22T06:38:03.852Z,51.179253
2023-06-22T06:39:03.763Z,51.179287
2023-06-22T06:40:03.766Z,51.179295
2023-06-22T06:41:03.780Z,51.179276
2023-06-22T06:42:03.747Z,51.179268
2023-06-22T06:43:03.734Z,51.179279
2023-06-22T06:44:03.716Z,51.179264
2023-06-22T06:45:03.719Z,51.179249
2023-06-22T06:46:03.798Z,51.179203
2023-06-22T06:47:03.664Z,51.179192
2023-06-22T06:48:03.754Z,51.179214
2023-06-22T06:49:03.676Z,51.179222
2023-06-22T06:50:03.662Z,51.179256
2023-06-22T06:51:03.675Z,51.179260
2023-06-22T06:52:03.618Z,51.179291
2023-06-22T06:53:03.675Z,51.179310
2023-06-22T06:54:03.711Z,51.179314
2023-06-22T06:55:03.615Z,51.179291
2023-06-22T06:56:03.595Z,51.179287
2023-06-22T06:57:03.601Z,51.179302
2023-06-22T06:58:03.705Z,51.179310
2023-06-22T06:59:03.567Z,51.179306
2023-06-22T07:00:03.544Z,51.179287
2023-06-22T07:01:03.539Z,51.179272
2023-06-22T07:02:03.563Z,51.179291
2023-06-22T07:03:03.607Z,51.179306
2023-06-22T07:04:03.531Z,51.179291
2023-06-22T07:05:03.490Z,51.179283
2023-06-22T07:06:03.492Z,51.179253
2023-06-22T07:07:03.482Z,51.179237
2023-06-22T07:08:03.458Z,51.179199
2023-06-22T07:09:03.432Z,51.179142
2023-06-22T07:10:05.525Z,51.179138
2023-06-22T07:11:03.447Z,51.179180
2023-06-22T07:12:03.558Z,51.179195
2023-06-22T07:13:03.413Z,51.179176
2023-06-22T07:14:03.397Z,51.179192
2023-06-22T07:15:03.401Z,51.179214
2023-06-22T07:16:03.365Z,51.179241
2023-06-22T07:17:03.393Z,51.179260
2023-06-22T07:18:03.393Z,51.179249
2023-06-22T07:19:03.345Z,51.179245
2023-06-22T07:20:03.355Z,51.179253
2023-06-22T07:21:03.301Z,51.179245
2023-06-22T07:22:03.333Z,51.179249
2023-06-22T07:23:03.314Z,51.179203
2023-06-22T07:24:03.317Z,51.179222
2023-06-22T07:25:03.272Z,51.179253
2023-06-22T07:26:03.310Z,51.179249
2023-06-22T07:27:03.345Z,51.179237
2023-06-22T07:28:03.409Z,51.179237
2023-06-22T07:29:03.257Z,51.179230
2023-06-22T07:30:03.215Z,51.179218
2023-06-22T07:31:03.323Z,51.179218
2023-06-22T07:32:03.211Z,51.179203
2023-06-22T07:33:03.257Z,51.179222
2023-06-22T07:34:03.219Z,51.179222
2023-06-22T07:35:03.169Z,51.179226
2023-06-22T07:36:03.153Z,51.179237
2023-06-22T07:37:03.177Z,51.179199
2023-06-22T07:38:06.056Z,51.179173
2023-06-22T07:39:04.133Z,51.179199
2023-06-22T07:40:03.142Z,51.179180
2023-06-22T07:41:03.122Z,51.179192
2023-06-22T07:42:03.110Z,51.179192
2023-06-22T07:43:03.230Z,51.179165
2023-06-22T07:44:03.095Z,51.179157
2023-06-22T07:45:03.057Z,51.179153
2023-06-22T07:46:04.045Z,51.179180
2023-06-22T07:47:03.042Z,51.179207
2023-06-22T07:48:03.133Z,51.179226
2023-06-22T07:49:03.043Z,51.179203
2023-06-22T07:50:03.028Z,51.179214
2023-06-22T07:51:03.018Z,51.179195
2023-06-22T07:52:04.477Z,51.179169
2023-06-22T07:53:02.987Z,51.179165
2023-06-22T07:54:02.955Z,51.179161
2023-06-22T07:55:02.986Z,51.179199
2023-06-22T07:56:02.983Z,51.179211
2023-06-22T07:57:02.934Z,51.179234
2023-06-22T07:58:02.973Z,51.179214
2023-06-22T07:59:02.911Z,51.179176
2023-06-22T08:00:02.896Z,51.179176
2023-06-22T08:01:02.887Z,51.179192
2023-06-22T08:02:02.963Z,51.179226
2023-06-22T08:03:02.937Z,51.179192
2023-06-22T08:04:02.932Z,51.179169
2023-06-22T08:05:10.936Z,51.179153
2023-06-22T08:06:04.835Z,51.179134
2023-06-22T08:07:02.836Z,51.179146
2023-06-22T08:08:02.861Z,51.179184
2023-06-22T08:09:02.819Z,51.179195
2023-06-22T08:10:02.806Z,51.179211
2023-06-22T08:11:02.784Z,51.179214
2023-06-22T08:12:02.777Z,51.179161
2023-06-22T08:13:02.763Z,51.179142
2023-06-22T08:14:02.888Z,51.179226
2023-06-22T08:15:02.768Z,51.179234
2023-06-22T08:16:02.716Z,51.179218
2023-06-22T08:17:02.723Z,51.179218
2023-06-22T08:18:02.739Z,51.179203
2023-06-22T08:19:02.710Z,51.179169
2023-06-22T08:20:02.705Z,51.179214
2023-06-22T08:21:16.157Z,51.179218
2023-06-22T08:22:02.682Z,51.179199
2023-06-22T08:23:02.679Z,51.179173
2023-06-22T08:24:02.658Z,51.179165
2023-06-22T08:25:02.630Z,51.179161
2023-06-22T08:26:02.605Z,51.179142
2023-06-22T08:27:02.610Z,51.179123
2023-06-22T08:28:03.608Z,51.179169
2023-06-22T08:29:02.584Z,51.179214
2023-06-22T08:30:02.584Z,51.179226
2023-06-22T08:31:02.558Z,51.179226
2023-06-22T08:32:02.629Z,51.179241
2023-06-22T08:33:02.613Z,51.179222
2023-06-22T08:34:02.542Z,51.179211
2023-06-22T08:35:02.530Z,51.179211
2023-06-22T08:36:02.545Z,51.179218
2023-06-22T08:37:02.504Z,51.179207
2023-06-22T08:38:02.490Z,51.179207
2023-06-22T08:39:02.650Z,51.179211
2023-06-22T08:40:02.553Z,51.179173
2023-06-22T08:41:02.465Z,51.179165
2023-06-22T08:42:02.438Z,51.179192
2023-06-22T08:43:02.457Z,51.179195
2023-06-22T08:44:02.432Z,51.179203
2023-06-22T08:45:02.395Z,51.179211
2023-06-22T08:46:02.432Z,51.179230
2023-06-22T08:47:02.395Z,51.179234
2023-06-22T08:48:02.446Z,51.179226
2023-06-22T08:49:02.389Z,51.179222
2023-06-22T08:50:03.358Z,51.179218
2023-06-22T08:51:02.357Z,51.179203
2023-06-22T08:52:02.357Z,51.179199
2023-06-22T08:53:02.345Z,51.179199
2023-06-22T08:54:02.328Z,51.179222
2023-06-22T08:55:02.327Z,51.179222
2023-06-22T08:56:02.292Z,51.179226
2023-06-22T08:57:02.301Z,51.179195
2023-06-22T08:58:02.301Z,51.179146
2023-06-22T08:59:02.275Z,51.179153
2023-06-22T09:00:02.255Z,51.179211
2023-06-22T09:01:02.257Z,51.179234
2023-06-22T09:02:02.283Z,51.179199
2023-06-22T09:03:02.488Z,51.179184
2023-06-22T09:04:02.280Z,51.179211
2023-06-22T09:05:02.410Z,51.179203
2023-06-22T09:06:02.239Z,51.179211
2023-06-22T09:07:02.196Z,51.179203
2023-06-22T09:08:02.177Z,51.179176
2023-06-22T09:09:02.183Z,51.179211
2023-06-22T09:10:04.203Z,51.179241
2023-06-22T09:11:03.137Z,51.179268
2023-06-22T09:12:02.139Z,51.179256
2023-06-22T09:13:02.146Z,51.179218
2023-06-22T09:14:02.150Z,51.179249
2023-06-22T09:15:02.108Z,51.179264
2023-06-22T09:16:02.090Z,51.179283
2023-06-22T09:17:02.072Z,51.179295
2023-06-22T09:18:02.096Z,51.179264
2023-06-22T09:19:02.070Z,51.179214
2023-06-22T09:20:02.053Z,51.179173
2023-06-22T09:21:02.037Z,51.179218
2023-06-22T09:22:02.048Z,51.179222
2023-06-22T09:23:02.011Z,51.179253
2023-06-22T09:24:02.005Z,51.179256
2023-06-22T09:25:02.013Z,51.179237
2023-06-22T09:26:01.997Z,51.179226
2023-06-22T09:27:01.990Z,51.179230
2023-06-22T09:28:01.978Z,51.179226
2023-06-22T09:29:01.968Z,51.179234
2023-06-22T09:30:01.940Z,51.179253
2023-06-22T09:31:01.992Z,51.179249
2023-06-22T09:32:02.175Z,51.179241
2023-06-22T09:33:01.961Z,51.179249
2023-06-22T09:34:01.901Z,51.179260
2023-06-22T09:35:01.910Z,51.179245
2023-06-22T09:36:01.889Z,51.179245
2023-06-22T09:37:01.959Z,51.179214
2023-06-22T09:38:01.901Z,51.179192
2023-06-22T09:39:01.858Z,51.179226
2023-06-22T09:40:01.860Z,51.179241
2023-06-22T09:41:01.819Z,51.179230
2023-06-22T09:42:01.835Z,51.179218
2023-06-22T09:43:01.800Z,51.179249
2023-06-22T09:44:01.786Z,51.179264
2023-06-22T09:45:01.802Z,51.179253
2023-06-22T09:46:01.772Z,51.179241
2023-06-22T09:47:02.779Z,51.179214
2023-06-22T09:48:01.800Z,51.179203
2023-06-22T09:49:01.746Z,51.179207
2023-06-22T09:50:01.808Z,51.179226
2023-06-22T09:51:01.724Z,51.179230
2023-06-22T09:52:01.714Z,51.179256
2023-06-22T09:53:01.692Z,51.179234
2023-06-22T09:54:01.691Z,51.179226
2023-06-22T09:55:01.703Z,51.179222
2023-06-22T09:56:01.652Z,51.179245
2023-06-22T09:57:01.665Z,51.179218
2023-06-22T09:58:01.655Z,51.179180
2023-06-22T09:59:13.982Z,51.179192
2023-06-22T10:00:03.621Z,51.179249
2023-06-22T10:01:01.649Z,51.179245
2023-06-22T10:02:01.692Z,51.179237
2023-06-22T10:03:02.051Z,51.179245
2023-06-22T10:04:01.931Z,51.179199
2023-06-22T10:05:01.989Z,51.179150
2023-06-22T10:06:01.663Z,51.179176
2023-06-22T10:07:01.570Z,51.179195
2023-06-22T10:08:01.553Z,51.179203
2023-06-22T10:09:01.547Z,51.179230
2023-06-22T10:10:01.520Z,51.179199
2023-06-22T10:11:01.524Z,51.179192
2023-06-22T10:12:01.512Z,51.179203
2023-06-22T10:13:01.490Z,51.179195
2023-06-22T10:14:01.504Z,51.179211
2023-06-22T10:15:01.479Z,51.179226
2023-06-22T10:16:01.462Z,51.179241
2023-06-22T10:17:01.479Z,51.179245
2023-06-22T10:18:01.507Z,51.179241
2023-06-22T10:19:01.440Z,51.179249
2023-06-22T10:20:01.426Z,51.179249
2023-06-22T10:21:01.409Z,51.179256
2023-06-22T10:22:01.408Z,51.179245
2023-06-22T10:23:01.404Z,51.179226
2023-06-22T10:24:01.377Z,51.179214
2023-06-22T10:25:01.362Z,51.179272
2023-06-22T10:26:01.384Z,51.179260
2023-06-22T10:27:01.365Z,51.179253
2023-06-22T10:28:01.350Z,51.179253
2023-06-22T10:29:16.019Z,51.179237
2023-06-22T10:30:03.338Z,51.179237
2023-06-22T10:31:01.394Z,51.179245
2023-06-22T10:32:01.334Z,51.179260
2023-06-22T10:33:01.360Z,51.179241
2023-06-22T10:34:01.292Z,51.179222
2023-06-22T10:35:01.287Z,51.179207
2023-06-22T10:36:01.276Z,51.179207
2023-06-22T10:37:01.295Z,51.179188
2023-06-22T10:38:01.255Z,51.179203
2023-06-22T10:39:01.230Z,51.179214
2023-06-22T10:40:01.236Z,51.179253
2023-06-22T10:41:01.213Z,51.179211
2023-06-22T10:42:01.222Z,51.179214
2023-06-22T10:43:01.246Z,51.179245
2023-06-22T10:44:01.204Z,51.179276
2023-06-22T10:45:01.186Z,51.179283
2023-06-22T10:46:01.168Z,51.179249
2023-06-22T10:47:01.175Z,51.179230
2023-06-22T10:48:01.235Z,51.179249
2023-06-22T10:49:01.140Z,51.179249
2023-06-22T10:50:01.140Z,51.179214
2023-06-22T10:51:01.144Z,51.179199
2023-06-22T10:52:01.117Z,51.179184
2023-06-22T10:53:01.119Z,51.179226
2023-06-22T10:54:01.175Z,51.179237
2023-06-22T10:55:01.079Z,51.179283
2023-06-22T10:56:01.357Z,51.179264
2023-06-22T10:57:01.063Z,51.179234
2023-06-22T10:58:01.062Z,51.179237
2023-06-22T10:59:01.039Z,51.179218
2023-06-22T11:00:01.079Z,51.179203
2023-06-22T11:01:01.102Z,51.179199
2023-06-22T11:02:01.054Z,51.179214
2023-06-22T11:03:01.133Z,51.179161
2023-06-22T11:04:01.170Z,51.179111
2023-06-22T11:05:00.971Z,51.179161
2023-06-22T11:06:00.986Z,51.179222
2023-06-22T11:07:00.969Z,51.179214
2023-06-22T11:08:00.967Z,51.179237
2023-06-22T11:09:05.373Z,51.179226
2023-06-22T11:10:02.944Z,51.179298
2023-06-22T11:11:00.923Z,51.179302
2023-06-22T11:12:00.988Z,51.179325
2023-06-22T11:13:00.948Z,51.179363
2023-06-22T11:14:00.908Z,51.179367
2023-06-22T11:15:00.908Z,51.179386
2023-06-22T11:16:00.882Z,51.179321
2023-06-22T11:17:00.869Z,51.179253
2023-06-22T11:18:00.936Z,51.179264
2023-06-22T11:19:00.851Z,51.179253
2023-06-22T11:20:00.853Z,51.179249
2023-06-22T11:21:00.833Z,51.179256
2023-06-22T11:22:00.823Z,51.179272
2023-06-22T11:23:00.813Z,51.179306
2023-06-22T11:24:00.815Z,51.179302